Time;durP1;ratioP1;P1;durP2;ratioP2;P2;SDS_P1;SDS_P2;PMS_P1;PMS_P2;Temp;Humidity;BMP_temperature;BMP_pressure;BME280_temperature;BME280_humidity;BME280_pressure;Samples;Min_cycle;Max_cycle;Signal;HPM_P1;HPM_P2
2022/11/25 00:00:52;;;;;;;0.82;0.75;;;;;;;16.85;37.25;101297.88;5057274;28;20449;-92
2022/11/25 00:03:18;;;;;;;0.93;0.88;;;;;;;16.96;37.15;101309.94;5058166;28;20028;-91
2022/11/25 00:05:44;;;;;;;0.90;0.90;;;;;;;16.91;37.25;101306.19;5041451;28;20035;-92
2022/11/25 00:08:09;;;;;;;0.95;0.82;;;;;;;16.91;37.18;101312.41;5057448;28;20035;-92
2022/11/25 00:10:35;;;;;;;1.02;0.95;;;;;;;16.90;37.17;101308.03;5041690;28;20161;-92
2022/11/25 00:13:00;;;;;;;0.90;0.90;;;;;;;16.90;37.12;101297.25;5075357;28;20051;-92
2022/11/25 00:15:26;;;;;;;1.10;1.00;;;;;;;16.91;37.25;101303.50;5058418;28;20035;-91
2022/11/25 00:17:52;;;;;;;1.00;1.00;;;;;;;16.87;37.24;101300.38;5075013;28;20054;-92
2022/11/25 00:20:21;;;;;;;1.15;1.05;;;;;;;16.85;37.29;101305.13;5075306;28;20028;-92
2022/11/25 00:22:46;;;;;;;1.23;1.13;;;;;;;16.88;37.09;101307.44;5075014;28;20024;-92
2022/11/25 00:25:12;;;;;;;1.20;1.10;;;;;;;16.91;37.38;101317.81;5041169;28;20119;-92
2022/11/25 00:27:38;;;;;;;1.30;1.00;;;;;;;16.91;37.13;101315.13;5072190;28;20581;-93
2022/11/25 00:30:08;;;;;;;0.90;0.90;;;;;;;16.91;37.29;101322.41;5054472;28;20041;-93
2022/11/25 00:32:33;;;;;;;1.33;1.23;;;;;;;16.90;37.17;101318.84;5053498;28;20278;-92
2022/11/25 00:34:59;;;;;;;1.25;1.15;;;;;;;16.87;37.16;101324.69;5074911;28;20032;-93
2022/11/25 00:37:25;;;;;;;1.42;1.10;;;;;;;16.86;37.17;101323.00;5058272;28;20030;-93
2022/11/25 00:39:53;;;;;;;1.30;1.10;;;;;;;16.87;37.15;101324.69;5074576;28;20117;-92
2022/11/25 00:45:06;;;;;;;1.15;1.05;;;;;;;16.89;37.12;101333.41;5074734;28;20039;-92
2022/11/25 00:47:32;;;;;;;1.10;1.00;;;;;;;16.82;37.05;101314.47;5075042;28;20059;-93
2022/11/25 00:49:57;;;;;;;1.15;1.05;;;;;;;16.86;37.22;101315.72;5076199;28;20055;-92
2022/11/25 00:52:25;;;;;;;1.02;1.00;;;;;;;16.94;37.08;101341.72;5066139;28;20198;-92
2022/11/25 00:54:51;;;;;;;1.15;1.05;;;;;;;16.86;37.15;101313.03;5059141;28;20383;-92
2022/11/25 00:57:17;;;;;;;1.38;1.23;;;;;;;16.86;37.16;101317.59;5076512;28;20119;-93
2022/11/25 00:59:43;;;;;;;1.05;1.00;;;;;;;16.84;37.03;101319.69;5063546;28;20564;-92
2022/11/25 01:02:09;;;;;;;1.23;1.10;;;;;;;16.81;37.02;101322.75;5056634;28;20119;-93
2022/11/25 01:04:38;;;;;;;1.45;1.15;;;;;;;16.87;37.32;101321.97;5073917;28;20402;-93
2022/11/25 01:07:03;;;;;;;1.10;1.00;;;;;;;16.89;37.17;101317.19;5071931;28;20016;-93
2022/11/25 01:09:29;;;;;;;1.30;1.20;;;;;;;16.87;37.20;101321.97;5053627;28;20130;-93
2022/11/25 01:11:55;;;;;;;1.38;1.15;;;;;;;16.91;37.14;101335.91;5040553;28;20041;-92
2022/11/25 01:14:21;;;;;;;1.45;1.20;;;;;;;16.79;37.07;101322.16;5062135;28;20025;-92
2022/11/25 01:16:47;;;;;;;1.30;1.10;;;;;;;16.84;37.02;101325.09;5057814;28;20456;-93
2022/11/25 01:19:13;;;;;;;1.00;0.90;;;;;;;16.88;37.02;101340.69;5041393;28;20024;-92
2022/11/25 01:21:38;;;;;;;1.42;1.20;;;;;;;16.91;37.28;101347.53;5057030;28;20413;-93
2022/11/25 01:24:07;;;;;;;1.33;1.23;;;;;;;16.83;36.79;101334.19;5041470;28;20122;-92
2022/11/25 01:26:34;;;;;;;1.88;1.20;;;;;;;16.82;37.19;101344.16;5040670;28;20466;-94
2022/11/25 01:29:01;;;;;;;2.05;1.40;;;;;;;16.85;37.18;101333.00;5041026;28;20128;-92
2022/11/25 01:31:31;;;;;;;1.27;1.17;;;;;;;16.89;37.20;101334.22;5057908;28;20040;-93
2022/11/25 01:34:17;;;;;;;1.15;1.05;;;;;;;16.83;37.18;101329.63;5061915;28;20031;-94
2022/11/25 01:36:43;;;;;;;1.30;1.20;;;;;;;16.88;37.20;101347.94;5047773;28;20020;-93
2022/11/25 01:39:20;;;;;;;1.10;1.00;;;;;;;16.85;37.36;101341.09;5075334;28;20035;-93
2022/11/25 01:41:46;;;;;;;1.20;1.10;;;;;;;16.82;37.17;101337.94;5042211;28;20444;-93
2022/11/25 01:44:13;;;;;;;1.35;1.25;;;;;;;16.89;37.30;101349.59;5073916;28;20032;-94
2022/11/25 01:46:50;;;;;;;1.35;1.10;;;;;;;16.88;37.17;101348.78;5077358;28;20027;-93
2022/11/25 01:49:46;;;;;;;1.35;1.20;;;;;;;16.88;37.21;101353.31;5078875;28;20032;-93
2022/11/25 01:52:14;;;;;;;1.40;1.30;;;;;;;16.87;37.13;101351.69;5074979;28;20126;-92
2022/11/25 01:55:08;;;;;;;1.38;1.25;;;;;;;16.84;37.39;101358.31;5078426;28;20044;-93
2022/11/25 01:57:37;;;;;;;1.33;1.23;;;;;;;16.81;37.25;101347.06;5074311;28;20028;-92
2022/11/25 02:00:08;;;;;;;1.40;1.30;;;;;;;16.83;37.12;101358.47;5068268;28;20058;-93
2022/11/25 02:02:34;;;;;;;1.40;1.30;;;;;;;16.80;37.19;101357.03;5059863;28;20499;-93
2022/11/25 02:05:07;;;;;;;1.55;1.23;;;;;;;16.84;37.04;101363.72;5077995;28;20024;-93
2022/11/25 02:07:37;;;;;;;1.58;1.33;;;;;;;16.83;37.15;101361.19;5077701;28;20431;-93
2022/11/25 02:10:17;;;;;;;1.65;1.38;;;;;;;16.79;37.24;101354.53;5078543;28;20035;-93
2022/11/25 02:12:44;;;;;;;1.70;1.33;;;;;;;16.79;37.05;101351.84;5059995;28;20040;-93
2022/11/25 02:15:10;;;;;;;1.45;1.10;;;;;;;16.82;37.28;101373.03;5060331;28;20403;-93
2022/11/25 02:17:36;;;;;;;1.67;1.50;;;;;;;16.85;37.15;101367.22;5060142;28;20406;-94
2022/11/25 02:20:16;;;;;;;1.48;1.35;;;;;;;16.84;37.23;101362.88;5060787;28;20040;-93
2022/11/25 02:22:48;;;;;;;1.67;1.58;;;;;;;16.86;37.07;101372.44;5052286;28;20503;-93
2022/11/25 02:25:21;;;;;;;1.30;1.20;;;;;;;16.86;37.47;101377.00;5078566;28;20051;-93
2022/11/25 02:27:53;;;;;;;1.30;1.20;;;;;;;16.69;37.42;101347.69;5076349;28;20024;-93
2022/11/25 02:30:19;;;;;;;1.52;1.42;;;;;;;16.78;37.21;101367.22;5060100;28;20047;-92
2022/11/25 02:32:46;;;;;;;1.40;1.30;;;;;;;16.81;37.24;101365.97;5047966;28;20033;-93
2022/11/25 02:35:27;;;;;;;1.65;1.40;;;;;;;16.85;37.22;101372.63;5076840;28;20031;-92
2022/11/25 02:37:54;;;;;;;1.58;1.45;;;;;;;16.82;37.10;101373.84;5076321;28;20025;-93
2022/11/25 02:40:19;;;;;;;1.20;1.10;;;;;;;16.81;37.17;101365.97;5076209;28;20712;-93
2022/11/25 02:42:46;;;;;;;1.30;1.20;;;;;;;16.77;37.22;101359.31;5051062;28;20039;-92
2022/11/25 02:45:14;;;;;;;1.65;1.48;;;;;;;16.83;37.09;101377.38;5070516;28;20025;-92
2022/11/25 02:47:40;;;;;;;1.52;1.42;;;;;;;16.82;37.21;101368.47;5078486;28;20470;-92
2022/11/25 02:50:09;;;;;;;2.00;1.55;;;;;;;16.74;37.14;101359.72;5059368;28;20054;-93
2022/11/25 02:52:34;;;;;;;1.60;1.50;;;;;;;16.70;37.12;101346.63;5075522;28;20085;-93
2022/11/25 02:55:00;;;;;;;1.50;1.40;;;;;;;16.78;37.20;101374.47;5067665;28;20094;-92
2022/11/25 02:57:28;;;;;;;1.42;1.33;;;;;;;16.73;37.16;101352.66;5068150;28;20085;-92
2022/11/25 02:59:54;;;;;;;1.23;1.13;;;;;;;16.81;37.35;101374.06;5072572;28;20551;-92
2022/11/25 03:02:19;;;;;;;1.45;1.35;;;;;;;16.75;37.08;101366.75;5076064;28;20032;-92
2022/11/25 03:04:45;;;;;;;1.27;1.17;;;;;;;16.74;37.21;101373.22;5059279;28;20020;-93
2022/11/25 03:07:13;;;;;;;1.50;1.40;;;;;;;16.77;37.16;101364.72;5050181;28;20342;-92
2022/11/25 03:09:42;;;;;;;1.55;1.45;;;;;;;16.80;37.32;101383.19;5076959;28;20059;-92
2022/11/25 03:12:20;;;;;;;1.83;1.52;;;;;;;16.78;37.22;101369.06;5051262;28;20036;-92
2022/11/25 03:14:46;;;;;;;1.45;1.35;;;;;;;16.79;37.26;101371.56;5055064;28;20316;-94
2022/11/25 03:17:11;;;;;;;1.65;1.55;;;;;;;16.76;37.27;101373.84;5058031;28;20027;-92
2022/11/25 03:19:37;;;;;;;1.60;1.50;;;;;;;16.78;37.22;101383.41;5075745;28;20503;-92
2022/11/25 03:22:03;;;;;;;1.38;1.20;;;;;;;16.68;37.29;101377.56;5076086;28;20043;-93
2022/11/25 03:24:28;;;;;;;1.50;1.40;;;;;;;16.71;37.22;101380.69;5043169;28;20093;-93
2022/11/25 03:26:54;;;;;;;1.70;1.33;;;;;;;16.79;37.38;101392.34;5074481;28;20034;-92
2022/11/25 03:29:20;;;;;;;1.20;1.10;;;;;;;16.77;37.20;101394.41;5059314;28;20040;-93
2022/11/25 03:31:45;;;;;;;1.33;1.23;;;;;;;16.78;37.21;101396.06;5075465;28;20031;-93
2022/11/25 03:34:11;;;;;;;1.50;1.30;;;;;;;16.75;37.15;101388.34;5073538;28;20031;-93
2022/11/25 03:36:37;;;;;;;1.70;1.25;;;;;;;16.73;37.13;101390.44;5076166;28;20298;-92
2022/11/25 03:39:02;;;;;;;1.50;1.30;;;;;;;16.77;37.30;101405.22;5056982;28;20024;-93
2022/11/25 03:41:28;;;;;;;1.55;1.40;;;;;;;16.76;37.21;101395.44;5066483;28;20021;-92
2022/11/25 03:43:54;;;;;;;1.52;1.38;;;;;;;16.69;37.15;101393.56;5042215;28;20115;-92
2022/11/25 03:46:19;;;;;;;1.60;1.40;;;;;;;16.66;37.27;101382.31;5074579;28;20499;-94
2022/11/25 03:48:45;;;;;;;1.52;1.42;;;;;;;16.70;37.39;101394.38;5063653;28;20059;-93
2022/11/25 03:51:11;;;;;;;1.40;1.30;;;;;;;16.76;37.25;101400.84;5074721;28;20490;-93
2022/11/25 03:53:36;;;;;;;1.60;1.50;;;;;;;16.75;37.17;101396.47;5076655;28;20031;-93
2022/11/25 03:56:11;;;;;;;1.45;1.35;;;;;;;16.79;37.46;101408.53;5058525;28;20173;-92
2022/11/25 03:58:36;;;;;;;1.40;1.30;;;;;;;16.62;37.15;101376.50;5074121;28;20039;-92
2022/11/25 04:01:02;;;;;;;2.22;1.63;;;;;;;16.57;37.02;101373.56;5075641;28;21884;-93
2022/11/25 04:03:28;;;;;;;1.40;1.30;;;;;;;16.65;37.27;101383.38;5057555;28;20162;-91
2022/11/25 04:05:54;;;;;;;1.73;1.40;;;;;;;16.76;37.16;101408.94;5060412;28;20236;-92
2022/11/25 04:08:20;;;;;;;1.75;1.63;;;;;;;16.63;37.22;101388.97;5034936;28;20103;-92
2022/11/25 04:10:45;;;;;;;1.20;1.10;;;;;;;16.63;37.22;101388.16;5069499;28;20016;-92
2022/11/25 04:13:14;;;;;;;1.50;1.40;;;;;;;16.68;37.28;101396.47;5057987;28;20022;-92
2022/11/25 04:15:46;;;;;;;1.50;1.40;;;;;;;16.62;37.16;101390.00;5058381;28;20024;-93
2022/11/25 04:18:12;;;;;;;1.27;1.17;;;;;;;16.73;37.17;101401.22;5073660;28;20054;-93
2022/11/25 04:20:38;;;;;;;2.42;1.42;;;;;;;16.64;37.19;101379.84;5077053;28;20047;-92
2022/11/25 04:23:07;;;;;;;1.52;1.42;;;;;;;16.71;37.26;101402.28;5058025;28;20474;-93
2022/11/25 04:25:33;;;;;;;1.40;1.30;;;;;;;16.74;37.22;101400.22;5042029;28;20577;-92
2022/11/25 04:27:59;;;;;;;1.50;1.40;;;;;;;16.68;37.23;101386.50;5058226;28;20101;-93
2022/11/25 04:30:25;;;;;;;1.42;1.33;;;;;;;16.67;37.34;101390.22;5073832;28;20961;-93
2022/11/25 04:32:50;;;;;;;1.30;1.20;;;;;;;16.68;37.09;101391.06;5062192;28;20494;-90
2022/11/25 04:35:16;;;;;;;1.42;1.33;;;;;;;16.71;37.17;101390.63;5042431;28;20020;-92
2022/11/25 04:37:41;;;;;;;1.50;1.40;;;;;;;16.71;37.15;101402.28;5065808;28;20479;-93
2022/11/25 04:40:08;;;;;;;2.15;1.67;;;;;;;16.73;37.19;101403.94;5057119;28;20032;-94
2022/11/25 04:42:35;;;;;;;1.70;1.60;;;;;;;16.73;37.15;101409.31;5052087;28;20038;-92
2022/11/25 04:45:02;;;;;;;1.70;1.40;;;;;;;16.64;37.19;101389.78;5074202;28;20051;-92
2022/11/25 04:47:28;;;;;;;1.60;1.40;;;;;;;16.68;37.25;101400.00;5041450;28;20569;-92
2022/11/25 04:49:54;;;;;;;1.80;1.60;;;;;;;16.67;37.31;101400.19;5074839;28;20062;-92
2022/11/25 04:52:20;;;;;;;1.42;1.33;;;;;;;16.61;37.30;101393.75;5089937;28;20036;-89
2022/11/25 04:54:45;;;;;;;1.73;1.30;;;;;;;16.67;37.24;101395.63;5042286;28;20043;-92
2022/11/25 04:57:14;;;;;;;1.58;1.48;;;;;;;16.62;37.28;101398.09;5057931;28;20027;-93
2022/11/25 04:59:41;;;;;;;1.83;1.40;;;;;;;16.69;37.50;101409.75;5039741;28;20483;-93
2022/11/25 05:02:15;;;;;;;1.75;1.58;;;;;;;16.70;37.05;101411.41;5064616;28;20203;-92
2022/11/25 05:04:41;;;;;;;1.88;1.60;;;;;;;16.69;37.17;101409.75;5057456;28;20077;-92
2022/11/25 05:07:07;;;;;;;1.10;1.05;;;;;;;16.68;37.29;101410.78;5075488;28;20509;-93
2022/11/25 05:09:33;;;;;;;1.40;1.30;;;;;;;16.70;37.16;101415.97;5057752;28;20048;-92
2022/11/25 05:11:58;;;;;;;1.67;1.55;;;;;;;16.68;37.06;101412.66;5072324;28;20024;-93
2022/11/25 05:14:24;;;;;;;1.50;1.40;;;;;;;16.72;37.24;101422.00;5056093;28;20406;-93
2022/11/25 05:16:50;;;;;;;1.63;1.30;;;;;;;16.60;37.16;101404.75;5065517;28;20035;-92
2022/11/25 05:19:16;;;;;;;1.92;1.58;;;;;;;16.54;37.09;101409.09;5040912;28;20115;-93
2022/11/25 05:21:42;;;;;;;1.50;1.40;;;;;;;16.57;37.07;101411.34;5044686;28;20123;-93
2022/11/25 05:24:07;;;;;;;1.40;1.30;;;;;;;16.63;37.20;101418.66;5042601;28;20032;-92
2022/11/25 05:26:33;;;;;;;1.50;1.40;;;;;;;16.60;37.07;101410.97;5077093;28;20031;-92
2022/11/25 05:28:59;;;;;;;1.70;1.50;;;;;;;16.62;37.17;101408.88;5043669;28;20483;-92
2022/11/25 05:31:24;;;;;;;1.83;1.40;;;;;;;16.58;37.35;101414.91;5044248;28;20316;-92
2022/11/25 05:33:50;;;;;;;1.55;1.45;;;;;;;16.60;37.20;101416.34;5059958;28;20119;-92
2022/11/25 05:36:16;;;;;;;1.50;1.40;;;;;;;16.69;37.43;101442.16;5060955;28;20182;-91
2022/11/25 05:38:42;;;;;;;1.40;1.30;;;;;;;16.67;37.29;101433.41;5062239;28;20024;-92
2022/11/25 05:41:09;;;;;;;1.40;1.30;;;;;;;16.57;37.25;101427.53;5066940;28;20395;-91
2022/11/25 05:43:35;;;;;;;1.80;1.50;;;;;;;16.70;37.27;101442.97;5077881;28;20020;-93
2022/11/25 05:46:08;;;;;;;1.38;1.27;;;;;;;16.73;37.13;101460.63;5078185;28;20489;-92
2022/11/25 05:48:34;;;;;;;1.75;1.55;;;;;;;16.69;37.17;101458.34;5077151;28;20070;-93
2022/11/25 05:51:00;;;;;;;1.60;1.33;;;;;;;16.65;37.22;101450.84;5041989;28;20032;-92
2022/11/25 05:53:26;;;;;;;2.05;1.50;;;;;;;16.58;37.08;101445.41;5062100;28;20020;-92
2022/11/25 05:56:00;;;;;;;1.40;1.30;;;;;;;16.63;37.27;101451.03;5060104;28;20502;-92
2022/11/25 05:58:26;;;;;;;1.45;1.25;;;;;;;16.53;37.19;101435.22;5072318;28;20613;-93
2022/11/25 06:00:51;;;;;;;1.52;1.30;;;;;;;16.58;37.19;101445.41;5046425;28;20051;-92
2022/11/25 06:03:17;;;;;;;1.27;1.17;;;;;;;16.69;37.21;101468.28;5077179;28;20063;-93
2022/11/25 06:05:43;;;;;;;1.25;1.15;;;;;;;16.69;37.25;101476.38;5043932;28;20474;-92
2022/11/25 06:08:09;;;;;;;1.42;1.33;;;;;;;16.67;37.19;101471.19;5059274;28;20036;-92
2022/11/25 06:10:39;;;;;;;1.70;1.50;;;;;;;16.64;37.17;101471.63;5076899;28;20051;-92
2022/11/25 06:13:05;;;;;;;1.95;1.63;;;;;;;16.69;37.17;101479.94;5075489;28;20192;-92
2022/11/25 06:15:31;;;;;;;1.30;1.20;;;;;;;16.69;37.17;101481.78;5077227;28;20034;-89
2022/11/25 06:17:56;;;;;;;1.65;1.55;;;;;;;16.59;37.18;101474.09;5061931;28;20016;-92
2022/11/25 06:20:22;;;;;;;1.50;1.30;;;;;;;16.61;37.25;101481.94;5059785;28;20546;-92
2022/11/25 06:22:48;;;;;;;1.40;1.30;;;;;;;16.69;37.21;101489.88;5076726;28;20022;-93
2022/11/25 06:25:13;;;;;;;1.48;1.38;;;;;;;16.69;37.10;101492.59;5078754;28;20035;-92
2022/11/25 06:27:39;;;;;;;1.40;1.30;;;;;;;16.59;37.14;101478.63;5045051;28;20023;-93
2022/11/25 06:30:08;;;;;;;1.38;1.25;;;;;;;16.65;37.36;101486.75;5076463;28;20123;-92
2022/11/25 06:32:33;;;;;;;1.33;1.20;;;;;;;16.58;37.34;101488.59;5067306;28;20117;-93
2022/11/25 06:35:01;;;;;;;1.55;1.45;;;;;;;16.60;37.39;101493.78;5073722;28;20052;-94
2022/11/25 06:37:27;;;;;;;1.50;1.40;;;;;;;16.57;37.23;101476.13;5059980;28;20486;-94
2022/11/25 06:39:53;;;;;;;1.60;1.42;;;;;;;16.63;37.20;101485.31;5049807;28;20207;-92
2022/11/25 06:42:18;;;;;;;1.30;1.17;;;;;;;16.66;37.24;101496.53;5059378;28;20078;-93
2022/11/25 06:44:44;;;;;;;1.60;1.30;;;;;;;16.67;37.10;101498.19;5060201;28;20172;-92
2022/11/25 06:47:09;;;;;;;1.23;1.13;;;;;;;16.67;37.28;101497.34;5045015;28;20398;-93
2022/11/25 06:49:35;;;;;;;1.50;1.40;;;;;;;16.63;37.15;101491.53;5061606;28;20024;-92
2022/11/25 06:52:01;;;;;;;1.30;1.20;;;;;;;16.64;37.31;101495.06;5073046;28;20401;-93
2022/11/25 06:54:26;;;;;;;1.35;1.25;;;;;;;16.65;37.44;101500.25;5073658;28;20111;-93
2022/11/25 06:56:52;;;;;;;1.35;1.25;;;;;;;16.62;37.47;101500.66;5061136;28;20107;-92
2022/11/25 06:59:19;;;;;;;1.50;1.40;;;;;;;16.63;37.22;101499.63;5061435;28;20067;-93
2022/11/25 07:01:45;;;;;;;1.30;1.20;;;;;;;16.66;37.21;101512.72;5066272;28;20485;-93
2022/11/25 07:04:11;;;;;;;1.30;1.20;;;;;;;16.68;37.19;101509.81;5044298;28;20590;-93
2022/11/25 07:06:36;;;;;;;1.75;1.45;;;;;;;16.63;37.30;101501.50;5076596;28;20039;-93
2022/11/25 07:09:02;;;;;;;1.67;1.40;;;;;;;16.69;37.10;101517.72;5078943;28;20016;-93
2022/11/25 07:11:32;;;;;;;1.45;1.30;;;;;;;16.68;37.23;101524.16;5044461;28;20028;-93
2022/11/25 07:13:59;;;;;;;1.27;1.17;;;;;;;16.66;37.32;101518.13;5065401;28;20509;-92
2022/11/25 07:16:25;;;;;;;1.52;1.20;;;;;;;16.64;37.18;101519.34;5066934;28;20338;-92
2022/11/25 07:18:51;;;;;;;1.40;1.20;;;;;;;16.66;37.32;101522.66;5059493;28;20035;-92
2022/11/25 07:21:19;;;;;;;1.52;1.40;;;;;;;16.64;37.13;101522.91;5077689;28;20081;-93
2022/11/25 07:23:44;;;;;;;1.40;1.30;;;;;;;16.65;37.07;101529.94;5041715;28;20499;-93
2022/11/25 07:26:18;;;;;;;1.50;1.40;;;;;;;16.60;37.26;101535.09;5072395;28;20032;-92
2022/11/25 07:28:43;;;;;;;1.30;1.20;;;;;;;16.64;37.21;101540.94;5061488;28;20047;-93
2022/11/25 07:31:23;;;;;;;1.40;1.30;;;;;;;16.64;37.12;101539.09;5077831;28;20032;-93
2022/11/25 07:33:56;;;;;;;1.20;1.10;;;;;;;16.59;37.09;101533.47;5068379;28;20020;-92
2022/11/25 07:36:22;;;;;;;1.30;1.20;;;;;;;16.69;37.03;101543.88;5043526;28;20028;-93
2022/11/25 07:38:50;;;;;;;1.55;1.45;;;;;;;16.64;37.19;101538.22;5053368;28;20035;-92
2022/11/25 07:41:17;;;;;;;2.00;1.50;;;;;;;16.62;37.14;101543.00;5079099;28;20009;-93
2022/11/25 07:43:44;;;;;;;1.45;1.33;;;;;;;16.64;37.33;101547.19;5060108;28;20039;-93
2022/11/25 07:46:17;;;;;;;1.40;1.30;;;;;;;16.66;37.12;101550.50;5064171;28;20426;-93
2022/11/25 07:48:43;;;;;;;1.30;1.20;;;;;;;16.66;37.16;101550.50;5078886;28;20043;-93
2022/11/25 07:51:19;;;;;;;1.20;1.10;;;;;;;16.62;37.17;101548.41;5060948;28;20024;-93
2022/11/25 07:53:45;;;;;;;1.50;1.40;;;;;;;16.65;37.25;101548.00;5044009;28;20119;-93
2022/11/25 07:56:11;;;;;;;1.73;1.45;;;;;;;16.61;37.19;101554.81;5077069;28;20091;-93
2022/11/25 07:58:37;;;;;;;1.50;1.20;;;;;;;16.55;37.09;101542.13;5068429;28;20097;-92
2022/11/25 08:01:03;;;;;;;1.30;1.20;;;;;;;16.65;37.19;101559.63;5044302;28;20139;-93
2022/11/25 08:03:30;;;;;;;1.52;1.30;;;;;;;16.66;37.32;101561.31;5042759;28;20044;-89
2022/11/25 08:06:02;;;;;;;1.58;1.35;;;;;;;16.67;37.06;101562.13;5062691;28;20539;-89
2022/11/25 08:08:27;;;;;;;1.35;1.17;;;;;;;16.64;37.11;101563.38;5042274;28;20042;-93
2022/11/25 08:10:53;;;;;;;1.30;1.17;;;;;;;16.62;36.96;101562.72;5043372;28;20052;-93
2022/11/25 08:13:19;;;;;;;1.40;1.30;;;;;;;16.66;37.14;101564.00;5075085;28;20440;-92
2022/11/25 08:15:44;;;;;;;1.30;1.00;;;;;;;16.65;37.14;101570.44;5060566;28;20024;-93
2022/11/25 08:18:10;;;;;;;1.20;1.10;;;;;;;16.64;37.18;101578.72;5042943;28;20086;-93
2022/11/25 08:20:38;;;;;;;1.48;1.25;;;;;;;16.54;37.17;101562.91;5059704;28;20028;-93
2022/11/25 08:23:03;;;;;;;1.55;1.40;;;;;;;16.59;37.22;101571.25;5078558;28;20024;-93
2022/11/25 08:25:30;;;;;;;0.95;0.95;;;;;;;16.57;37.14;101577.84;5059960;28;20070;-93
2022/11/25 08:27:58;;;;;;;1.40;1.30;;;;;;;16.62;37.29;101584.31;5059616;28;20504;-93
2022/11/25 08:30:24;;;;;;;1.48;1.20;;;;;;;16.59;37.14;101582.03;5058415;28;20495;-93
2022/11/25 08:32:50;;;;;;;1.58;1.20;;;;;;;16.61;37.30;101585.38;5043311;28;20034;-93
2022/11/25 08:35:16;;;;;;;1.15;1.05;;;;;;;16.60;36.98;101578.28;5076297;28;20028;-93
2022/11/25 08:37:41;;;;;;;2.70;1.38;;;;;;;16.64;37.15;101584.13;5059818;28;21156;-94
2022/11/25 08:40:09;;;;;;;1.05;0.95;;;;;;;16.65;37.10;101592.00;5074385;28;20439;-92
2022/11/25 08:42:35;;;;;;;1.40;1.13;;;;;;;16.63;37.05;101588.69;5052672;28;20429;-92
2022/11/25 08:45:01;;;;;;;1.65;1.30;;;;;;;16.63;37.06;101599.47;5060853;28;20027;-93
2022/11/25 08:47:26;;;;;;;1.13;1.02;;;;;;;16.64;37.18;101595.75;5042580;28;20347;-93
2022/11/25 08:49:52;;;;;;;1.70;1.35;;;;;;;16.62;36.97;101597.81;5059684;28;20082;-92
2022/11/25 08:52:18;;;;;;;2.95;1.30;;;;;;;16.63;37.19;101598.66;5058644;28;20445;-92
2022/11/25 08:54:44;;;;;;;1.30;1.20;;;;;;;16.64;37.18;101606.56;5056866;28;20368;-92
2022/11/25 08:57:10;;;;;;;1.30;1.20;;;;;;;16.61;37.08;101601.56;5075215;28;20061;-93
2022/11/25 08:59:35;;;;;;;1.30;1.20;;;;;;;16.61;37.12;101598.84;5077035;28;20600;-93
2022/11/25 09:02:01;;;;;;;1.70;1.27;;;;;;;16.62;37.13;101603.19;5058890;28;20098;-93
2022/11/25 09:04:26;;;;;;;1.33;1.17;;;;;;;16.63;37.11;101612.16;5059213;28;20410;-93
2022/11/25 09:06:52;;;;;;;1.42;1.23;;;;;;;16.60;37.10;101610.66;5060467;28;20401;-93
2022/11/25 09:09:18;;;;;;;1.23;1.13;;;;;;;16.60;36.99;101616.06;5076203;28;20230;-93
2022/11/25 09:11:43;;;;;;;1.30;1.15;;;;;;;16.62;37.00;101605.91;5056912;28;20394;-93
2022/11/25 09:14:09;;;;;;;1.40;1.30;;;;;;;16.57;37.18;101605.66;5065521;28;20068;-92
2022/11/25 09:16:34;;;;;;;1.30;1.20;;;;;;;16.61;37.06;101609.66;5075825;28;20044;-93
2022/11/25 09:19:00;;;;;;;1.33;1.23;;;;;;;16.63;37.08;101609.47;5076163;28;20107;-93
2022/11/25 09:21:26;;;;;;;1.58;1.20;;;;;;;16.61;37.00;101612.34;5041627;28;20138;-93
2022/11/25 09:23:53;;;;;;;1.55;1.35;;;;;;;16.59;37.03;101600.06;5059086;28;20520;-93
2022/11/25 09:26:24;;;;;;;1.35;1.10;;;;;;;16.64;37.07;101617.34;5058087;28;20028;-93
2022/11/25 09:28:49;;;;;;;1.55;1.30;;;;;;;16.63;37.06;101621.06;5063837;28;20044;-93
2022/11/25 09:31:15;;;;;;;1.42;1.33;;;;;;;16.59;37.13;101609.03;5058388;28;20039;-93
2022/11/25 09:33:41;;;;;;;1.40;1.27;;;;;;;16.61;36.96;101611.50;5040281;28;20379;-93
2022/11/25 09:36:06;;;;;;;1.80;1.27;;;;;;;16.62;37.12;101613.19;5055091;28;20513;-92
2022/11/25 09:38:32;;;;;;;1.75;1.40;;;;;;;16.62;37.00;101614.00;5038625;28;20032;-93
2022/11/25 09:41:10;;;;;;;1.30;1.20;;;;;;;16.65;37.10;101613.59;5064113;28;20084;-93
2022/11/25 09:46:43;;;;;;;1.10;1.00;;;;;;;16.62;37.07;101607.78;5071757;28;20042;-92
2022/11/25 09:49:27;;;;;;;1.63;1.52;;;;;;;16.63;36.99;101618.38;5068540;28;20024;-93
2022/11/25 09:52:18;;;;;;;1.25;1.15;;;;;;;16.62;37.06;101623.97;5073245;28;20035;-92
2022/11/25 09:54:48;;;;;;;1.35;1.20;;;;;;;16.59;37.08;101605.47;5054009;28;20047;-92
2022/11/25 09:57:30;;;;;;;1.52;1.35;;;;;;;16.63;37.05;101621.06;5066677;28;20050;-93
2022/11/25 09:59:59;;;;;;;1.20;1.10;;;;;;;16.61;36.90;101622.28;5059190;28;20028;-93
2022/11/25 10:02:34;;;;;;;1.63;1.33;;;;;;;16.61;37.13;101622.28;5058402;28;20290;-92
2022/11/25 10:05:33;;;;;;;1.20;1.10;;;;;;;16.58;36.75;101623.53;5064126;28;20028;-92
2022/11/25 10:08:02;;;;;;;1.33;1.13;;;;;;;16.55;37.04;101612.31;5077504;28;20432;-93
2022/11/25 10:10:42;;;;;;;1.40;1.30;;;;;;;16.62;37.00;101624.78;5058908;28;20024;-93
2022/11/25 10:13:15;;;;;;;1.40;1.30;;;;;;;16.58;36.94;101617.31;5064235;28;20036;-93
2022/11/25 10:15:43;;;;;;;1.63;1.30;;;;;;;16.60;37.09;101617.94;5078654;28;20024;-93
2022/11/25 10:18:18;;;;;;;1.30;1.10;;;;;;;16.58;37.04;101628.09;5061948;28;20012;-92
2022/11/25 10:20:43;;;;;;;1.50;1.40;;;;;;;16.59;36.99;101627.06;5078416;28;23897;-92
2022/11/25 10:23:20;;;;;;;1.38;1.27;;;;;;;16.61;36.99;101633.09;5050287;28;20192;-92
2022/11/25 10:25:47;;;;;;;1.23;1.13;;;;;;;16.58;36.85;101625.41;5062563;28;20074;-93
2022/11/25 10:28:17;;;;;;;1.83;1.48;;;;;;;16.63;36.83;101628.34;5059287;28;20024;-93
2022/11/25 10:30:48;;;;;;;1.30;1.20;;;;;;;16.60;36.93;101629.56;5061274;28;20070;-92
2022/11/25 10:33:21;;;;;;;1.40;1.30;;;;;;;16.61;36.98;101628.53;5055281;28;20039;-92
2022/11/25 10:35:46;;;;;;;1.40;1.30;;;;;;;16.63;36.98;101629.19;5044609;28;20035;-92
2022/11/25 10:38:33;;;;;;;1.48;1.30;;;;;;;16.61;36.90;101620.44;5079917;28;20450;-93
2022/11/25 10:40:59;;;;;;;1.85;1.23;;;;;;;16.62;36.88;101629.38;5077602;28;20032;-93
2022/11/25 10:43:25;;;;;;;1.80;1.30;;;;;;;16.63;36.93;101631.88;5063118;28;20032;-93
2022/11/25 10:46:21;;;;;;;1.27;1.17;;;;;;;16.62;36.82;101629.38;5068537;28;21703;-93
2022/11/25 10:48:56;;;;;;;1.40;1.30;;;;;;;16.58;36.92;101628.94;5076352;28;20035;-92
2022/11/25 10:51:35;;;;;;;1.55;1.35;;;;;;;16.58;36.99;101634.31;5077530;28;20378;-92
2022/11/25 10:54:20;;;;;;;1.42;1.33;;;;;;;16.60;37.06;101642.22;5075236;28;20327;-91
2022/11/25 10:56:56;;;;;;;1.30;1.20;;;;;;;16.57;36.95;101638.03;5076564;28;20164;-93
2022/11/25 10:59:33;;;;;;;1.42;1.33;;;;;;;16.58;36.86;101639.72;5078782;28;20103;-93
2022/11/25 11:02:18;;;;;;;1.38;1.20;;;;;;;16.57;36.85;101637.22;5062953;28;20590;-92
2022/11/25 11:05:07;;;;;;;1.85;1.50;;;;;;;16.59;36.96;101652.19;5062020;28;20028;-93
2022/11/25 11:07:40;;;;;;;1.40;1.30;;;;;;;16.59;36.91;101646.81;5078733;28;20031;-92
2022/11/25 11:10:26;;;;;;;1.40;1.30;;;;;;;16.61;36.81;101650.13;5049670;28;20024;-92
2022/11/25 11:13:02;;;;;;;1.42;1.33;;;;;;;16.59;36.72;101646.81;5077983;28;20054;-92
2022/11/25 11:15:40;;;;;;;1.80;1.50;;;;;;;16.62;36.93;101656.34;5058937;28;20043;-92
2022/11/25 11:18:18;;;;;;;1.80;1.42;;;;;;;16.63;36.84;101655.34;5075289;28;20534;-92
2022/11/25 11:20:48;;;;;;;1.35;1.25;;;;;;;16.61;36.82;101660.94;5077020;28;20027;-92
2022/11/25 11:23:14;;;;;;;1.70;1.48;;;;;;;16.56;36.87;101646.34;5060155;28;20031;-93
2022/11/25 11:25:43;;;;;;;1.63;1.42;;;;;;;16.60;36.70;101656.56;5061685;28;20093;-92
2022/11/25 11:28:31;;;;;;;2.25;1.60;;;;;;;16.61;36.87;101650.13;5060933;28;20028;-92
2022/11/25 11:31:07;;;;;;;1.35;1.25;;;;;;;16.60;36.85;101656.56;5076737;28;20063;-93
2022/11/25 11:33:34;;;;;;;1.58;1.45;;;;;;;16.59;36.84;101657.59;5077569;28;20032;-93
2022/11/25 11:36:28;;;;;;;1.30;1.20;;;;;;;16.62;36.83;101662.59;5075827;28;20509;-94